Aviation Digital Data Service (ADDS)

Output produced by METARs form (1011 UTC 01 February 2015)
found at http://aviationweather.gov/adds/metars/
 
METAR text: KSPB 010953Z AUTO 21004KT 10SM CLR 04/02 A3013 RMK AO2 SLP201 T00440017 $
Conditions at: KSPB (SCAPPOOSE , OR, US) observed 0953 UTC 01 February 2015
Temperature: 4.4°C (40°F)
Dewpoint: 1.7°C (35°F) [RH = 83%]
Pressure (altimeter): 30.13 inches Hg (1020.4 mb)
[Sea-level pressure: 1020.1 mb]
Winds: from the SSW (210 degrees) at 5 MPH (4 knots; 2.1 m/s)
Visibility: 10 or more miles (16+ km)
Ceiling: at least 12,000 feet AGL
Clouds: sky clear below 12,000 feet AGL
Weather:
SOME DATA ABOVE MAY BE INACCURATE!!!
"$" is an indication the sensor requires maintenance

METAR text: KSPB 010853Z AUTO 19004KT 10SM CLR 06/01 A3013 RMK AO2 SLP201 T00560011 53003 $
Conditions at: KSPB (SCAPPOOSE , OR, US) observed 0853 UTC 01 February 2015
Temperature: 5.6°C (42°F)
Dewpoint: 1.1°C (34°F) [RH = 73%]
Pressure (altimeter): 30.13 inches Hg (1020.4 mb)
[Sea-level pressure: 1020.1 mb]
Winds: from the S (190 degrees) at 5 MPH (4 knots; 2.1 m/s)
Visibility: 10 or more miles (16+ km)
Ceiling: at least 12,000 feet AGL
Clouds: sky clear below 12,000 feet AGL
Weather:
SOME DATA ABOVE MAY BE INACCURATE!!!
"$" is an indication the sensor requires maintenance